Etusivu
METAR-TAF:

METAR-TAF

Lentoasemat :

Baia Mare, Romania

Leveyspiiri: 47-40N, Pituuspiiri: 023-35E, korkeus merenpinnasta: 218 m

Tämänhetkinen sää

Tämä raportti tehtiin 33 minuuttia sitten, kello 02.00 UTC
Tuuli 4 kn idästä/koillisesta
Lämpötila
Ilmanpaine 996 hPa
Näkyvyys 10 km tai enemmän
Muutamia pilviä 6500 ft:n korkeudessa
Hajonneita pilviä 8000 ft:n korkeudessa

METAR: LRBM 140200Z AUTO 06004KT 9999 FEW065 BKN080 ///// Q0996

Aika: 04:33 (02:33 UTC)

Sääennuste

Tämä raportti tehtiin 12 tuntia ja 33 minuuttia sitten, kello 14.00 UTC
Ennuste voimassa 13. päivästä klo 15 UTC - 13. päivään klo 24 UTC
Tuuli 8 kn idästä
Näkyvyys 10 km tai enemmän
Hajonneita pilviä 6000 ft:n korkeudessa

TAF: LRBM 131400Z 1315/1324 09008KT 9999 BKN060

Säähavainnot ja -ennusteet yli 4000 lentoasemalta (METAR- ja TAF-raportit).

Käytössä olevat sääasemat on merkitty karttaan keltaisilla ja punaisilla pisteillä.

Aseta hiiri pisteen päälle nähdäksesi sääaseman nimen.

Klikkaa sitten nähdäksesi säähavainnot ja -ennusteet.

Kartan vaihtaminen: klikkaa mustalla rastilla varustettuja vihreitä pisteitä, niin voit zoomata sisään; viivalla varustettua vihreää pistettä, niin voit zoomata ulos tai vihreitä nuolia, niin pääset viereisille kartoille.


METAR-TAF: